Time;durP1;ratioP1;P1;durP2;ratioP2;P2;SDS_P1;SDS_P2;PMS_P1;PMS_P2;Temp;Humidity;BMP_temperature;BMP_pressure;BME280_temperature;BME280_humidity;BME280_pressure;Samples;Min_cycle;Max_cycle;Signal;HPM_P1;HPM_P2
2022/05/27 03:02:08;;;;;;;20.48;3.88;;;12.20;99.90;;;;;;6258159;22;20023;-77
2022/05/27 03:04:34;;;;;;;17.65;4.45;;;12.20;99.90;;;;;;6251172;22;20102;-78
2022/05/27 03:07:18;;;;;;;15.98;3.70;;;12.20;99.90;;;;;;6250733;22;20043;-78
2022/05/27 03:09:58;;;;;;;16.42;3.60;;;12.20;99.90;;;;;;6251982;22;20023;-77
2022/05/27 03:12:39;;;;;;;28.20;4.88;;;12.20;99.90;;;;;;6307186;22;20035;-76
2022/05/27 03:15:29;;;;;;;26.30;4.65;;;12.20;99.90;;;;;;6309760;22;20064;-78
2022/05/27 03:18:04;;;;;;;21.95;4.13;;;12.20;99.90;;;;;;6309603;22;20010;-77
2022/05/27 03:20:48;;;;;;;15.77;3.47;;;12.20;99.90;;;;;;6281874;22;20056;-78
2022/05/27 03:23:35;;;;;;;16.63;3.47;;;12.20;99.90;;;;;;6281967;22;20026;-79
2022/05/27 03:26:26;;;;;;;25.70;4.25;;;12.20;99.90;;;;;;6282085;22;20045;-78
2022/05/27 03:29:10;;;;;;;22.80;3.92;;;12.20;99.90;;;;;;6281859;22;20018;-77
2022/05/27 03:31:43;;;;;;;15.43;3.45;;;12.20;99.90;;;;;;6282103;22;20019;-79
2022/05/27 03:34:23;;;;;;;12.75;3.10;;;12.20;99.90;;;;;;6282113;22;20023;-77
2022/05/27 03:37:00;;;;;;;18.55;3.92;;;12.20;99.90;;;;;;6282053;22;20041;-76
2022/05/27 03:39:48;;;;;;;16.38;3.33;;;12.20;99.90;;;;;;6281936;22;20506;-75
2022/05/27 03:42:19;;;;;;;16.92;3.50;;;12.20;99.90;;;;;;6261701;22;20015;-79
2022/05/27 03:44:50;;;;;;;17.92;3.30;;;12.20;99.90;;;;;;6281807;22;20090;-78
2022/05/27 03:47:16;;;;;;;21.25;4.25;;;12.20;99.90;;;;;;6281859;22;20014;-76
2022/05/27 03:49:41;;;;;;;22.83;3.20;;;12.20;99.90;;;;;;6309120;22;20007;-78
2022/05/27 03:52:12;;;;;;;22.77;3.28;;;12.20;99.90;;;;;;6281718;22;20011;-76
2022/05/27 03:54:38;;;;;;;17.80;3.80;;;12.20;99.90;;;;;;6281866;22;20421;-78
2022/05/27 03:57:04;;;;;;;19.05;3.10;;;12.20;99.90;;;;;;6309404;22;20056;-76
2022/05/27 03:59:29;;;;;;;19.08;3.20;;;12.20;99.90;;;;;;6281540;22;20011;-77
2022/05/27 04:01:56;;;;;;;16.33;3.00;;;12.20;99.90;;;;;;6281451;22;20436;-79
2022/05/27 04:04:26;;;;;;;14.05;3.65;;;12.20;99.90;;;;;;6281435;22;20107;-79
2022/05/27 04:06:52;;;;;;;15.15;2.72;;;12.20;99.90;;;;;;6309090;22;20008;-76
2022/05/27 04:09:19;;;;;;;12.45;2.50;;;12.20;99.90;;;;;;6257388;22;20094;-76
2022/05/27 04:11:46;;;;;;;16.63;2.97;;;12.20;99.90;;;;;;6308749;22;20014;-78
2022/05/27 04:14:12;;;;;;;19.98;3.30;;;12.20;99.90;;;;;;6281538;22;20046;-79
2022/05/27 04:16:38;;;;;;;14.88;3.20;;;12.20;99.90;;;;;;6281415;22;20019;-78
2022/05/27 04:19:04;;;;;;;21.08;3.28;;;12.30;99.90;;;;;;6308836;22;20420;-77
2022/05/27 04:21:31;;;;;;;20.40;3.75;;;12.20;99.90;;;;;;6281677;22;20015;-78
2022/05/27 04:23:57;;;;;;;13.38;2.70;;;12.20;99.90;;;;;;6255861;22;20015;-78
2022/05/27 04:26:23;;;;;;;14.43;2.42;;;12.30;99.90;;;;;;6309817;22;20140;-78
2022/05/27 04:28:48;;;;;;;12.43;2.40;;;12.20;99.90;;;;;;6281401;22;20007;-76
2022/05/27 04:31:14;;;;;;;16.70;3.15;;;12.20;99.90;;;;;;6281232;22;20007;-78
2022/05/27 04:33:40;;;;;;;18.15;2.88;;;12.20;99.90;;;;;;6308799;22;20011;-77
2022/05/27 04:36:08;;;;;;;12.52;2.45;;;12.30;99.90;;;;;;6281421;22;20015;-78
2022/05/27 04:38:34;;;;;;;12.98;2.58;;;12.20;99.90;;;;;;6308663;22;20447;-77
2022/05/27 04:41:01;;;;;;;19.95;2.90;;;12.20;99.90;;;;;;6281196;22;20022;-78
2022/05/27 04:43:27;;;;;;;12.10;2.50;;;12.30;99.90;;;;;;6281268;22;20026;-78
2022/05/27 04:45:53;;;;;;;9.82;2.50;;;12.20;99.90;;;;;;6308704;22;20030;-76
2022/05/27 04:48:19;;;;;;;18.05;2.90;;;12.20;99.90;;;;;;6281222;22;20012;-76
2022/05/27 04:50:45;;;;;;;13.55;2.08;;;12.20;99.90;;;;;;6281282;22;20104;-79
2022/05/27 04:53:12;;;;;;;13.13;2.60;;;12.20;99.90;;;;;;6281350;22;20436;-76
2022/05/27 04:55:39;;;;;;;16.45;2.85;;;12.20;99.90;;;;;;6308800;22;20042;-76
2022/05/27 04:58:06;;;;;;;11.70;1.98;;;12.20;99.90;;;;;;6308556;22;20501;-78
2022/05/27 05:00:41;;;;;;;11.07;2.45;;;12.20;99.90;;;;;;6280942;22;20007;-77
2022/05/27 05:03:08;;;;;;;11.80;2.13;;;12.20;99.90;;;;;;6281194;22;20018;-77
2022/05/27 05:05:34;;;;;;;9.77;2.50;;;12.20;99.90;;;;;;6281134;22;20014;-78
2022/05/27 05:08:04;;;;;;;13.57;2.60;;;12.10;99.90;;;;;;6308379;22;20008;-77
2022/05/27 05:10:31;;;;;;;15.35;2.15;;;12.10;99.90;;;;;;6308403;22;20451;-77
2022/05/27 05:12:56;;;;;;;8.18;1.83;;;12.10;99.90;;;;;;6281022;22;20444;-78
2022/05/27 05:15:24;;;;;;;15.55;2.97;;;12.10;99.90;;;;;;6281129;22;20060;-78
2022/05/27 05:17:49;;;;;;;11.43;2.80;;;12.10;99.90;;;;;;6280733;22;20333;-80
2022/05/27 05:20:19;;;;;;;12.02;2.40;;;12.10;99.90;;;;;;6280874;22;20014;-80
2022/05/27 05:22:44;;;;;;;10.75;2.35;;;12.20;99.90;;;;;;6308731;22;20422;-77
2022/05/27 05:25:11;;;;;;;14.02;2.30;;;12.20;99.90;;;;;;6308442;22;20043;-80
2022/05/27 05:27:38;;;;;;;11.50;2.40;;;12.20;99.90;;;;;;6308393;22;20011;-78
2022/05/27 05:30:05;;;;;;;11.57;2.10;;;12.20;99.90;;;;;;6280983;22;20337;-77
2022/05/27 05:32:32;;;;;;;9.25;2.95;;;12.20;99.90;;;;;;6280876;22;20064;-77
2022/05/27 05:34:59;;;;;;;16.60;2.30;;;12.20;99.90;;;;;;6280934;22;20086;-79
2022/05/27 05:37:26;;;;;;;11.88;2.78;;;12.20;99.90;;;;;;6280707;22;20484;-77
2022/05/27 05:39:52;;;;;;;13.18;2.28;;;12.20;99.90;;;;;;6280902;22;20015;-78
2022/05/27 05:42:18;;;;;;;12.05;2.15;;;12.30;99.90;;;;;;6280703;22;20011;-77
2022/05/27 05:44:43;;;;;;;12.70;2.63;;;12.40;99.90;;;;;;6280647;22;20341;-79
2022/05/27 05:47:09;;;;;;;10.20;2.30;;;12.40;99.90;;;;;;6308401;22;20041;-78
2022/05/27 05:49:35;;;;;;;10.90;2.25;;;12.50;99.90;;;;;;6280538;22;20015;-78
2022/05/27 05:52:01;;;;;;;11.52;2.35;;;12.50;99.90;;;;;;6280442;22;20014;-76
2022/05/27 05:54:28;;;;;;;15.30;2.72;;;12.60;99.90;;;;;;6308352;22;20022;-78
2022/05/27 05:56:55;;;;;;;13.25;2.38;;;12.60;99.90;;;;;;6229875;22;20025;-77
2022/05/27 05:59:22;;;;;;;11.32;2.20;;;12.60;99.90;;;;;;6308079;22;20023;-77
2022/05/27 06:01:48;;;;;;;11.65;2.35;;;12.70;99.90;;;;;;6307713;22;20035;-77
2022/05/27 06:04:14;;;;;;;8.48;2.30;;;12.70;99.90;;;;;;6280504;22;20341;-79
2022/05/27 06:06:40;;;;;;;13.43;2.42;;;12.70;99.90;;;;;;6280445;22;20372;-76
2022/05/27 06:09:07;;;;;;;14.88;3.40;;;12.70;99.90;;;;;;6280558;22;20019;-78
2022/05/27 06:11:36;;;;;;;20.33;3.08;;;12.70;99.90;;;;;;6280401;22;20042;-80
2022/05/27 06:14:03;;;;;;;15.40;2.90;;;12.70;99.90;;;;;;6308078;22;20068;-78
2022/05/27 06:16:28;;;;;;;13.98;2.20;;;12.80;99.90;;;;;;6280501;22;20018;-78
2022/05/27 06:18:54;;;;;;;12.57;2.28;;;12.80;99.90;;;;;;6308155;22;20333;-80
2022/05/27 06:21:19;;;;;;;13.00;2.22;;;12.90;99.90;;;;;;6307996;22;20011;-77
2022/05/27 06:23:45;;;;;;;15.20;4.05;;;12.90;99.90;;;;;;6254959;22;20011;-78
2022/05/27 06:26:12;;;;;;;13.82;2.60;;;12.90;99.90;;;;;;6307689;22;20094;-76
2022/05/27 06:34:25;;;;;;;12.98;2.75;;;13.10;99.90;;;;;;6158293;23;20028;-80
2022/05/27 06:37:01;;;;;;;16.38;2.53;;;13.10;99.90;;;;;;6255436;22;20434;-77
2022/05/27 06:39:28;;;;;;;12.40;2.92;;;13.10;99.90;;;;;;6307767;22;20015;-77
2022/05/27 06:41:54;;;;;;;16.40;2.45;;;13.10;99.90;;;;;;6280114;22;20088;-77
2022/05/27 06:44:19;;;;;;;11.52;2.17;;;13.10;99.90;;;;;;6307853;22;20019;-78
2022/05/27 06:46:46;;;;;;;13.88;2.50;;;13.00;99.90;;;;;;6280352;22;20050;-80
2022/05/27 06:49:12;;;;;;;11.52;2.30;;;12.90;99.90;;;;;;6308297;22;20007;-78
2022/05/27 06:51:39;;;;;;;12.05;2.28;;;12.90;99.90;;;;;;6280160;22;20456;-77
2022/05/27 06:54:06;;;;;;;9.30;2.67;;;12.90;99.90;;;;;;6280174;22;20090;-76
2022/05/27 06:56:35;;;;;;;15.30;2.47;;;13.00;99.90;;;;;;6287177;22;20046;-77
2022/05/27 06:59:01;;;;;;;13.02;2.35;;;13.00;99.90;;;;;;6261133;22;20042;-75
2022/05/27 07:01:26;;;;;;;18.13;2.78;;;13.10;99.90;;;;;;6280775;22;20097;-78
2022/05/27 07:03:52;;;;;;;14.52;3.28;;;13.10;99.90;;;;;;6280556;22;20047;-79
2022/05/27 07:06:18;;;;;;;14.00;2.38;;;13.20;99.90;;;;;;6254543;22;20106;-80
2022/05/27 07:08:44;;;;;;;11.45;2.70;;;13.30;99.90;;;;;;6307754;22;20003;-79
2022/05/27 07:11:10;;;;;;;13.77;3.15;;;13.40;99.90;;;;;;6279860;22;20082;-78
2022/05/27 07:13:36;;;;;;;11.55;2.95;;;13.50;99.90;;;;;;6281733;22;20038;-83
2022/05/27 07:16:04;;;;;;;17.95;2.28;;;13.50;99.90;;;;;;6280529;22;20047;-80
2022/05/27 07:18:31;;;;;;;12.00;2.50;;;13.60;99.90;;;;;;6281434;22;20026;-79
2022/05/27 07:21:07;;;;;;;13.18;2.72;;;13.60;99.90;;;;;;6308163;22;20068;-77
2022/05/27 07:23:33;;;;;;;13.43;2.40;;;13.60;99.90;;;;;;6307535;22;20050;-78
2022/05/27 07:25:59;;;;;;;18.08;2.20;;;13.50;99.90;;;;;;6307446;22;20065;-78
2022/05/27 07:28:25;;;;;;;14.18;2.42;;;13.50;99.90;;;;;;6254587;22;20141;-78
2022/05/27 07:30:51;;;;;;;13.93;2.88;;;13.50;99.90;;;;;;6254543;22;20008;-77
2022/05/27 07:33:17;;;;;;;13.50;2.13;;;13.50;99.90;;;;;;6280094;22;20526;-79
2022/05/27 07:35:42;;;;;;;12.57;2.80;;;13.50;99.90;;;;;;6279878;22;20019;-78
2022/05/27 07:38:08;;;;;;;14.15;2.70;;;13.50;99.90;;;;;;6307783;22;20289;-78
2022/05/27 07:40:34;;;;;;;14.18;2.50;;;13.40;99.90;;;;;;6279948;22;20019;-76
2022/05/27 07:42:59;;;;;;;13.90;2.63;;;13.30;99.90;;;;;;6279996;22;20433;-79
2022/05/27 07:45:29;;;;;;;13.77;2.58;;;13.40;99.90;;;;;;6258538;22;20011;-77
2022/05/27 07:47:55;;;;;;;11.30;2.20;;;13.50;99.90;;;;;;6284023;22;20007;-75
2022/05/27 07:50:22;;;;;;;11.13;2.03;;;13.60;99.90;;;;;;6312649;22;20061;-75
2022/05/27 07:52:49;;;;;;;9.35;2.38;;;13.60;99.90;;;;;;6285514;22;20011;-77
2022/05/27 07:55:15;;;;;;;11.05;1.83;;;13.70;99.90;;;;;;6312923;22;20045;-76
2022/05/27 07:57:45;;;;;;;17.27;2.35;;;13.70;99.90;;;;;;6314375;22;20018;-78
2022/05/27 08:00:21;;;;;;;12.38;2.42;;;13.80;99.90;;;;;;6312696;22;20434;-78
2022/05/27 08:02:47;;;;;;;14.52;1.92;;;13.80;99.90;;;;;;6309370;22;20007;-78
2022/05/27 08:05:22;;;;;;;9.90;2.00;;;14.00;99.90;;;;;;6281655;22;20106;-78
2022/05/27 08:07:49;;;;;;;10.02;1.70;;;14.00;99.90;;;;;;6309085;22;20042;-82
2022/05/27 08:10:17;;;;;;;12.80;2.50;;;14.00;99.90;;;;;;6308867;22;20494;-77
2022/05/27 08:12:43;;;;;;;16.52;2.55;;;14.00;99.90;;;;;;6281788;22;20445;-78
2022/05/27 08:15:09;;;;;;;13.07;2.15;;;14.00;99.90;;;;;;6281453;22;20021;-78
2022/05/27 08:17:38;;;;;;;13.10;2.15;;;14.00;99.90;;;;;;6309516;22;20121;-79
2022/05/27 08:20:06;;;;;;;14.02;2.88;;;14.10;99.90;;;;;;6256150;22;20011;-80
2022/05/27 08:22:32;;;;;;;12.88;2.47;;;14.10;99.90;;;;;;6282213;22;20098;-77
2022/05/27 08:24:58;;;;;;;16.05;2.38;;;14.00;99.90;;;;;;6281580;22;20015;-77
2022/05/27 08:27:24;;;;;;;14.32;3.10;;;14.00;99.90;;;;;;6281922;22;20007;-79
2022/05/27 08:29:49;;;;;;;13.68;2.35;;;13.90;99.90;;;;;;6281434;22;20342;-80
2022/05/27 08:32:15;;;;;;;14.20;2.03;;;14.00;99.90;;;;;;6309080;22;20014;-77
2022/05/27 08:40:30;;;;;;;;;;;14.10;99.90;;;;;;6272082;22;20019;-78
2022/05/27 08:43:01;;;;;;;8.57;1.65;;;14.20;99.90;;;;;;6308629;22;20383;-79
2022/05/27 08:45:49;;;;;;;9.90;1.73;;;14.30;99.90;;;;;;6281431;22;20015;-78
2022/05/27 08:48:16;;;;;;;29.83;3.28;;;14.10;99.90;;;;;;6308938;22;20010;-78
2022/05/27 08:50:47;;;;;;;9.13;2.08;;;14.00;99.90;;;;;;6281465;22;20008;-79
2022/05/27 08:53:16;;;;;;;11.07;1.80;;;13.90;99.90;;;;;;6308764;22;20464;-81
2022/05/27 09:01:41;;;;;;;9.15;1.60;;;14.30;99.90;;;;;;6280476;22;20081;-79
2022/05/27 09:04:33;;;;;;;11.38;1.83;;;14.50;99.90;;;;;;6281225;22;20094;-79
2022/05/27 09:07:20;;;;;;;9.48;1.80;;;14.30;99.90;;;;;;6308952;22;20015;-78
2022/05/27 09:09:46;;;;;;;11.23;2.00;;;14.30;99.90;;;;;;6281185;22;20014;-78
2022/05/27 09:12:59;;;;;;;8.70;1.77;;;14.40;99.90;;;;;;6308444;22;20038;-78
2022/05/27 09:15:48;;;;;;;14.20;2.53;;;14.60;99.90;;;;;;6309235;22;20007;-77
2022/05/27 09:18:37;;;;;;;8.75;1.98;;;14.90;99.90;;;;;;6280935;22;20339;-80
2022/05/27 09:21:33;;;;;;;9.95;1.70;;;14.90;99.90;;;;;;6309149;22;20010;-78
2022/05/27 09:24:17;;;;;;;10.60;2.10;;;14.60;99.90;;;;;;6308770;22;20319;-79
2022/05/27 09:26:50;;;;;;;15.07;2.70;;;14.70;99.90;;;;;;6281087;22;20038;-80
2022/05/27 09:29:37;;;;;;;10.65;1.85;;;14.70;99.90;;;;;;6308608;22;20041;-78
2022/05/27 09:32:30;;;;;;;9.55;2.33;;;14.50;99.90;;;;;;6281908;22;20444;-83
2022/05/27 09:35:07;;;;;;;12.68;2.45;;;14.80;99.90;;;;;;6308725;22;20015;-81
2022/05/27 09:37:41;;;;;;;10.50;2.00;;;15.00;99.90;;;;;;6280861;22;20409;-81
2022/05/27 09:40:16;;;;;;;12.77;2.67;;;15.00;99.90;;;;;;6280760;22;20449;-80
2022/05/27 09:42:51;;;;;;;8.85;1.80;;;14.50;99.90;;;;;;6280873;22;20026;-82
2022/05/27 09:45:17;;;;;;;12.38;2.22;;;14.50;99.90;;;;;;6309360;22;20038;-81
2022/05/27 09:47:43;;;;;;;11.75;1.73;;;14.50;99.90;;;;;;6256583;22;20322;-81
2022/05/27 09:50:37;;;;;;;9.05;1.80;;;14.70;99.90;;;;;;6255205;22;20015;-81
2022/05/27 09:53:04;;;;;;;15.32;2.20;;;14.60;99.90;;;;;;6296500;22;20460;-79
2022/05/27 09:55:48;;;;;;;13.27;2.42;;;14.60;99.90;;;;;;6255271;22;20491;-82
2022/05/27 09:58:14;;;;;;;14.40;2.33;;;14.70;99.90;;;;;;6308363;22;20056;-79
2022/05/27 10:00:45;;;;;;;9.15;1.98;;;14.90;99.90;;;;;;6280472;22;20019;-83
2022/05/27 10:03:28;;;;;;;12.80;2.85;;;14.80;99.90;;;;;;6308368;22;20011;-80
2022/05/27 10:06:01;;;;;;;10.10;1.95;;;14.60;99.90;;;;;;6255091;22;20085;-82
2022/05/27 10:08:39;;;;;;;10.10;2.00;;;14.60;99.90;;;;;;6255727;22;20019;-79
2022/05/27 10:11:14;;;;;;;11.77;1.77;;;14.70;99.90;;;;;;6308355;22;20003;-83
2022/05/27 10:13:44;;;;;;;15.50;2.37;;;14.80;99.90;;;;;;6255297;22;20333;-82
2022/05/27 10:16:22;;;;;;;9.82;2.08;;;14.90;99.90;;;;;;6254979;22;20019;-79
2022/05/27 10:18:48;;;;;;;9.23;1.58;;;15.20;99.90;;;;;;6255807;22;20514;-82
2022/05/27 10:21:19;;;;;;;10.27;2.70;;;15.30;99.90;;;;;;6308262;22;20011;-82
2022/05/27 10:23:48;;;;;;;14.43;2.78;;;15.00;99.90;;;;;;6308206;22;20012;-82
2022/05/27 10:26:30;;;;;;;14.85;2.28;;;14.90;99.90;;;;;;6280442;22;20465;-80
2022/05/27 10:29:00;;;;;;;12.55;1.95;;;14.70;99.90;;;;;;6307992;22;20010;-79
2022/05/27 10:31:26;;;;;;;11.82;2.67;;;14.80;99.90;;;;;;6281096;22;20064;-82
2022/05/27 10:33:53;;;;;;;12.38;1.88;;;14.60;99.90;;;;;;6280647;22;20026;-80
2022/05/27 10:36:35;;;;;;;13.55;2.45;;;14.70;99.90;;;;;;6255089;22;20015;-80
2022/05/27 10:39:05;;;;;;;10.82;1.80;;;14.40;99.90;;;;;;6280385;22;20022;-80
2022/05/27 10:41:45;;;;;;;11.73;1.80;;;14.70;99.90;;;;;;6280215;22;20011;-80
2022/05/27 10:44:25;;;;;;;10.88;1.92;;;15.00;99.90;;;;;;6254770;22;20133;-79
2022/05/27 10:46:56;;;;;;;8.43;1.85;;;15.20;99.90;;;;;;6254868;22;20018;-80
2022/05/27 10:49:46;;;;;;;8.70;2.30;;;15.30;99.90;;;;;;6308303;22;20026;-79
2022/05/27 10:52:42;;;;;;;10.43;2.20;;;15.10;99.90;;;;;;6254735;22;20011;-81
2022/05/27 10:55:13;;;;;;;;;;;15.10;99.90;;;;;;6255917;22;20015;-79
2022/05/27 11:03:57;;;;;;;12.88;2.00;;;14.90;99.90;;;;;;6280472;22;20019;-80
2022/05/27 11:06:35;;;;;;;12.27;2.15;;;14.90;99.90;;;;;;6280268;22;20015;-81
2022/05/27 11:09:22;;;;;;;7.13;1.70;;;15.00;99.90;;;;;;6308405;22;20054;-81
2022/05/27 11:11:54;;;;;;;12.13;2.28;;;15.40;99.90;;;;;;6255760;22;20008;-80
2022/05/27 11:17:46;;;;;;;15.50;3.17;;;15.50;99.90;;;;;;6280205;22;20023;-81
2022/05/27 11:20:27;;;;;;;12.55;1.88;;;15.40;99.90;;;;;;6256041;22;20369;-81
2022/05/27 11:23:04;;;;;;;11.23;2.40;;;15.50;99.90;;;;;;6255295;22;20348;-79
2022/05/27 11:26:02;;;;;;;8.85;2.08;;;15.70;99.90;;;;;;6310030;22;20015;-79
2022/05/27 11:28:43;;;;;;;14.13;2.25;;;15.60;99.90;;;;;;6282606;22;20333;-81
2022/05/27 11:31:15;;;;;;;9.15;2.25;;;15.40;99.90;;;;;;6310191;22;20084;-84
2022/05/27 11:33:55;;;;;;;13.15;2.50;;;15.50;99.90;;;;;;6282406;22;20023;-80
2022/05/27 11:36:46;;;;;;;11.88;2.63;;;15.10;99.90;;;;;;6309963;22;20018;-81
2022/05/27 11:39:35;;;;;;;10.07;2.20;;;14.90;99.90;;;;;;6310293;22;20133;-80
2022/05/27 11:42:08;;;;;;;11.68;2.05;;;15.20;99.90;;;;;;6282190;22;20011;-79
2022/05/27 11:44:48;;;;;;;11.63;2.85;;;15.20;99.90;;;;;;6257066;22;20073;-80
2022/05/27 11:47:23;;;;;;;12.15;2.78;;;15.30;99.90;;;;;;6282127;22;20129;-82
2022/05/27 11:50:12;;;;;;;13.27;2.58;;;15.30;99.90;;;;;;6256527;22;20012;-81
2022/05/27 11:52:50;;;;;;;12.82;2.38;;;15.00;99.90;;;;;;6282795;22;20018;-83
2022/05/27 11:55:25;;;;;;;17.05;2.83;;;14.50;99.90;;;;;;6310206;22;20015;-80
2022/05/27 11:58:18;;;;;;;13.07;2.70;;;14.40;99.90;;;;;;6256518;22;20092;-83
2022/05/27 12:01:08;;;;;;;12.73;2.72;;;14.70;99.90;;;;;;6309056;22;20464;-80
2022/05/27 12:04:01;;;;;;;12.27;2.22;;;15.00;99.90;;;;;;6309134;22;20364;-80
2022/05/27 12:06:52;;;;;;;15.57;2.95;;;15.00;99.90;;;;;;6186658;22;20448;-81
2022/05/27 12:09:31;;;;;;;13.23;2.33;;;14.90;99.90;;;;;;6282078;22;20485;-83
2022/05/27 12:12:07;;;;;;;15.05;3.20;;;15.10;99.90;;;;;;6281819;22;20086;-83
2022/05/27 12:14:50;;;;;;;11.93;2.75;;;14.90;99.90;;;;;;6256891;22;20019;-82
2022/05/27 12:17:22;;;;;;;17.88;3.17;;;15.10;99.90;;;;;;6256626;22;20021;-81
2022/05/27 12:20:01;;;;;;;12.43;2.15;;;15.10;99.90;;;;;;6256795;22;20015;-83
2022/05/27 12:22:32;;;;;;;12.77;2.08;;;15.20;99.90;;;;;;6256324;22;20526;-82
2022/05/27 12:25:14;;;;;;;11.95;2.38;;;15.20;99.90;;;;;;6296615;22;20157;-81
2022/05/27 12:27:40;;;;;;;13.32;2.75;;;15.20;99.90;;;;;;6309220;22;20007;-81
2022/05/27 12:30:08;;;;;;;12.40;2.38;;;15.00;99.90;;;;;;6281607;22;20015;-78
2022/05/27 12:32:37;;;;;;;18.23;3.60;;;15.10;99.90;;;;;;6256348;22;20093;-81
2022/05/27 12:35:40;;;;;;;13.65;2.70;;;15.20;99.90;;;;;;6255571;22;20011;-80
2022/05/27 12:38:15;;;;;;;11.45;3.13;;;15.20;99.90;;;;;;6257612;22;20019;-82
2022/05/27 12:40:54;;;;;;;17.17;3.23;;;14.90;99.90;;;;;;6256956;22;20015;-80
2022/05/27 12:43:25;;;;;;;15.45;2.58;;;15.00;99.90;;;;;;6282121;22;20429;-79
2022/05/27 12:45:54;;;;;;;13.93;2.80;;;15.30;99.90;;;;;;6258052;22;20011;-80
2022/05/27 12:48:38;;;;;;;11.77;2.35;;;15.30;99.90;;;;;;6282726;22;20364;-76
2022/05/27 12:51:27;;;;;;;14.05;2.55;;;15.10;99.90;;;;;;6258246;22;20011;-81
2022/05/27 12:53:56;;;;;;;12.63;2.50;;;15.40;99.90;;;;;;6281682;22;20011;-80
2022/05/27 13:02:14;;;;;;;16.55;2.08;;;14.80;99.90;;;;;;6308598;22;20019;-78
2022/05/27 13:04:55;;;;;;;12.70;2.90;;;14.70;99.90;;;;;;6256473;22;20018;-80
2022/05/27 13:07:50;;;;;;;17.50;2.85;;;14.60;99.90;;;;;;6308971;22;20053;-80
2022/05/27 13:10:16;;;;;;;12.47;2.27;;;14.40;99.90;;;;;;6256154;22;20051;-82
2022/05/27 13:12:52;;;;;;;12.05;2.28;;;14.40;99.90;;;;;;6281521;22;20060;-80
2022/05/27 13:15:22;;;;;;;11.30;2.38;;;14.50;99.90;;;;;;6308917;22;20018;-81
2022/05/27 13:18:07;;;;;;;10.68;2.25;;;14.50;99.90;;;;;;6280974;22;20011;-81
2022/05/27 13:20:54;;;;;;;;;;;14.70;99.90;;;;;;6205403;22;20445;-78
2022/05/27 13:23:24;;;;;;;15.10;3.25;;;14.70;99.90;;;;;;6281397;22;19982;-81
2022/05/27 13:26:02;;;;;;;16.35;2.35;;;14.50;99.90;;;;;;6256702;22;20086;-80
2022/05/27 13:28:39;;;;;;;13.48;1.90;;;14.40;99.90;;;;;;6255801;22;20445;-81
2022/05/27 13:31:09;;;;;;;12.52;2.38;;;14.60;99.90;;;;;;6281753;22;20011;-78
2022/05/27 13:33:56;;;;;;;12.75;2.70;;;14.40;99.90;;;;;;6282832;22;20019;-77
2022/05/27 13:36:35;;;;;;;11.55;2.72;;;14.60;99.90;;;;;;6282921;22;20019;-79
2022/05/27 13:39:05;;;;;;;20.38;2.10;;;14.50;99.90;;;;;;6310125;22;20023;-80
2022/05/27 13:41:41;;;;;;;11.63;2.53;;;14.60;99.90;;;;;;6256625;22;20019;-79
2022/05/27 13:44:11;;;;;;;13.23;2.67;;;14.70;99.90;;;;;;6281410;22;20026;-82
2022/05/27 13:46:42;;;;;;;16.77;2.83;;;14.50;99.90;;;;;;6281173;22;20018;-78
2022/05/27 13:49:19;;;;;;;13.40;2.78;;;14.70;99.90;;;;;;6255001;22;20011;-82
2022/05/27 13:51:46;;;;;;;13.98;2.55;;;14.80;99.90;;;;;;6255539;22;20039;-80
2022/05/27 13:54:21;;;;;;;25.23;3.20;;;14.90;99.90;;;;;;6308550;22;20087;-79
2022/05/27 13:57:00;;;;;;;8.25;1.50;;;14.80;99.90;;;;;;6282047;22;20019;-79
2022/05/27 13:59:32;;;;;;;10.05;2.22;;;14.80;99.90;;;;;;6255536;22;20015;-81
2022/05/27 14:01:59;;;;;;;12.73;2.08;;;14.70;99.90;;;;;;6281193;22;20041;-82
2022/05/27 14:04:44;;;;;;;10.98;2.38;;;14.60;99.90;;;;;;6308438;22;20011;-80
2022/05/27 14:07:36;;;;;;;12.05;2.05;;;14.40;99.90;;;;;;6255182;22;20056;-81
2022/05/27 14:10:06;;;;;;;9.75;2.05;;;14.40;99.90;;;;;;6308540;22;20307;-78
2022/05/27 14:12:35;;;;;;;13.70;2.80;;;14.40;99.90;;;;;;6255477;22;20043;-81
2022/05/27 14:15:09;;;;;;;18.67;2.35;;;14.30;99.90;;;;;;6280823;22;20015;-79
2022/05/27 14:17:40;;;;;;;11.63;2.27;;;14.30;99.90;;;;;;6256778;22;20019;-81
2022/05/27 14:20:12;;;;;;;12.23;2.25;;;14.10;99.90;;;;;;6280413;22;20022;-83
2022/05/27 14:22:49;;;;;;;12.32;2.22;;;14.00;99.90;;;;;;6307557;22;20345;-80
2022/05/27 14:25:18;;;;;;;14.80;2.55;;;14.10;99.90;;;;;;6281363;22;20047;-81
2022/05/27 14:27:56;;;;;;;12.32;2.15;;;14.30;99.90;;;;;;6308443;22;20010;-81
2022/05/27 14:30:39;;;;;;;13.55;2.55;;;14.30;99.90;;;;;;6280639;22;20033;-83
2022/05/27 14:33:23;;;;;;;18.52;2.63;;;14.10;99.90;;;;;;6281035;22;20011;-82
2022/05/27 14:35:49;;;;;;;11.40;2.92;;;14.00;99.90;;;;;;6280484;22;20021;-80
2022/05/27 14:38:19;;;;;;;13.50;2.38;;;14.40;99.90;;;;;;6307933;22;20039;-83
2022/05/27 14:40:50;;;;;;;11.57;2.33;;;14.80;99.90;;;;;;6280491;22;20333;-79
2022/05/27 14:43:34;;;;;;;14.55;2.22;;;15.10;99.90;;;;;;6281607;22;20472;-81
2022/05/27 14:46:13;;;;;;;16.90;2.58;;;14.90;99.90;;;;;;6308411;22;20018;-80
2022/05/27 14:48:40;;;;;;;14.18;2.55;;;14.70;99.90;;;;;;6256224;22;20099;-80
2022/05/27 14:51:17;;;;;;;11.07;2.40;;;14.80;99.90;;;;;;6254392;22;20568;-79
2022/05/27 14:53:44;;;;;;;12.35;2.33;;;14.40;99.90;;;;;;6254386;22;20015;-79
2022/05/27 14:56:17;;;;;;;13.00;2.10;;;14.30;99.90;;;;;;6280142;22;20046;-79
2022/05/27 14:58:44;;;;;;;11.18;2.20;;;14.30;99.90;;;;;;6280846;22;20007;-81
2022/05/27 15:01:28;;;;;;;11.63;2.17;;;14.40;99.90;;;;;;6280583;22;20358;-80
2022/05/27 15:04:12;;;;;;;12.98;2.45;;;14.40;99.90;;;;;;6307597;22;20038;-82
2022/05/27 15:06:40;;;;;;;10.98;1.95;;;14.50;99.90;;;;;;6254563;22;20050;-82
2022/05/27 15:09:23;;;;;;;13.10;2.13;;;14.60;99.90;;;;;;6280344;22;20030;-79
2022/05/27 15:11:50;;;;;;;13.52;2.03;;;14.50;99.90;;;;;;6254533;22;20082;-79
2022/05/27 15:14:29;;;;;;;9.95;1.75;;;14.30;99.90;;;;;;6280459;22;20445;-80
2022/05/27 15:17:02;;;;;;;12.20;2.17;;;14.30;99.90;;;;;;6280526;22;20034;-81
2022/05/27 15:19:41;;;;;;;7.88;1.42;;;14.40;99.90;;;;;;6280160;22;20073;-81
2022/05/27 15:22:11;;;;;;;12.25;2.15;;;14.70;99.90;;;;;;6280479;22;20011;-79
2022/05/27 15:24:45;;;;;;;10.80;2.50;;;15.10;99.90;;;;;;6280605;22;20015;-81
2022/05/27 15:33:32;;;;;;;11.32;2.08;;;15.10;99.90;;;;;;6280550;22;20022;-79
2022/05/27 15:35:57;;;;;;;13.07;2.35;;;15.10;99.90;;;;;;6255136;22;20371;-79
2022/05/27 15:38:27;;;;;;;10.25;2.17;;;14.70;99.90;;;;;;6307953;22;20043;-81
2022/05/27 15:40:53;;;;;;;8.77;1.52;;;14.80;99.90;;;;;;6279949;22;20346;-80
2022/05/27 15:43:35;;;;;;;12.43;1.70;;;14.60;99.90;;;;;;6307778;22;20007;-81
2022/05/27 15:46:02;;;;;;;13.90;3.53;;;14.50;99.90;;;;;;6307486;22;20011;-81
2022/05/27 15:48:28;;;;;;;9.88;2.15;;;14.60;99.90;;;;;;6307752;22;20015;-81
2022/05/27 15:50:54;;;;;;;13.55;4.00;;;14.80;99.90;;;;;;6280271;22;20066;-80
2022/05/27 15:53:21;;;;;;;8.48;2.05;;;14.90;99.90;;;;;;6280028;22;20008;-80
2022/05/27 15:55:47;;;;;;;8.07;1.67;;;14.70;99.90;;;;;;6307611;22;20371;-80
2022/05/27 15:58:14;;;;;;;14.10;2.13;;;14.70;99.90;;;;;;6280210;22;20060;-80
2022/05/27 16:00:41;;;;;;;13.13;2.40;;;14.90;99.90;;;;;;6279694;22;20014;-81
2022/05/27 16:03:07;;;;;;;11.05;1.83;;;15.10;99.90;;;;;;6280120;22;20053;-79
2022/05/27 16:05:33;;;;;;;9.68;2.20;;;14.90;99.90;;;;;;6279866;22;20117;-81
2022/05/27 16:07:59;;;;;;;11.50;2.20;;;14.90;99.90;;;;;;6254567;22;20019;-79
2022/05/27 16:10:33;;;;;;;12.10;1.92;;;15.00;99.90;;;;;;6280656;22;20011;-80
2022/05/27 16:12:59;;;;;;;9.52;1.88;;;14.90;99.90;;;;;;6269481;22;20018;-79
2022/05/27 16:15:25;;;;;;;12.60;2.05;;;14.80;99.90;;;;;;6256506;22;20421;-80
2022/05/27 16:17:51;;;;;;;9.65;1.55;;;14.70;99.90;;;;;;6309965;22;20015;-82
2022/05/27 16:20:25;;;;;;;11.38;1.75;;;14.80;99.90;;;;;;6281579;22;20098;-80
2022/05/27 16:22:53;;;;;;;9.48;1.92;;;14.70;99.90;;;;;;6281854;22;20018;-80
2022/05/27 16:25:20;;;;;;;7.40;1.38;;;14.50;99.90;;;;;;6281514;22;20015;-81
2022/05/27 16:27:46;;;;;;;8.93;1.60;;;14.40;99.90;;;;;;6281905;22;20015;-81
2022/05/27 16:30:19;;;;;;;9.82;1.40;;;14.30;99.90;;;;;;6309618;22;20027;-79
2022/05/27 16:32:45;;;;;;;12.35;1.98;;;14.20;99.90;;;;;;6282081;22;20129;-81
2022/05/27 16:35:12;;;;;;;14.35;1.98;;;14.20;99.90;;;;;;6281593;22;20014;-82
2022/05/27 16:37:38;;;;;;;14.55;1.80;;;14.10;99.90;;;;;;6281371;22;20011;-82
2022/05/27 16:40:06;;;;;;;20.15;3.35;;;14.10;99.90;;;;;;6309182;22;20011;-81
2022/05/27 16:42:31;;;;;;;13.27;1.85;;;14.20;99.90;;;;;;6308452;22;20338;-79
2022/05/27 16:44:57;;;;;;;10.48;1.80;;;14.10;99.90;;;;;;6308412;22;20026;-81